LiveATC.Net - Listen to live air traffic control over the Internet!


ICAO: LBBG  IATA: BOJ   Airport: Burgas International Airport
City: Burgas
Country: Bulgaria   Continent: Europe
LBBG METAR Weather: LBBG 290530Z 20019KT CAVOK 20/11 Q0995 NOSIG
LBBG Flight Activity (FlightAware)

LBBG Twr/App
Feed Status: UP   Listeners: 0
Listen in your browser - HTML5 player (in browser, HTML5)
Click here to listen with your own player (launches your MP3 player)
Archive Access: LBBG Twr/App
FacilityFrequency
Burgas Approach125.100
Burgas Tower118.000

NOTICE

Unauthorized use prohibited. See LiveATC.net Terms of Service


Airport/ARTCC Code
Frequency Search
(e.g., 124.400, 128.75)
Site-wide search
 


Browse Feeds
Top 50 Feeds
HF Oceanic Feeds
Coverage Map
Bad Weather Areas

LiveATC FAQ
Offer LiveATC feed
Contact LiveATC.net
Press Inquiries

LiveATC on iPhone
LiveATC on Android

Windows Phone
Windows 8/10

LiveATC Mobile
(Mobile browser)

ATC Audio Archives
Interesting Recordings

LiveATC Forums


Home Page
About LiveATC.net
Make a Donation
Terms of Use
Privacy Policy

Canadian Air Freqs

AIRMETs/SIGMETs

FAA Airport Status
NAS Status
Arrival Demand


Server Software By:
Icecast.org
Liquidsoap